sensor_id;sensor_type;location;lat;lon;timestamp;P1;durP1;ratioP1;P2;durP2;ratioP2
5393;SDS011;2720;52.396;10.064;2023-05-19T00:02:21;11.40;;;2.73;;
5393;SDS011;2720;52.396;10.064;2023-05-19T00:04:51;9.83;;;3.20;;
5393;SDS011;2720;52.396;10.064;2023-05-19T00:07:19;12.13;;;3.33;;
5393;SDS011;2720;52.396;10.064;2023-05-19T00:09:50;11.20;;;2.90;;
5393;SDS011;2720;52.396;10.064;2023-05-19T00:12:17;10.43;;;2.70;;
5393;SDS011;2720;52.396;10.064;2023-05-19T00:14:45;12.23;;;3.30;;
5393;SDS011;2720;52.396;10.064;2023-05-19T00:17:12;11.97;;;2.80;;
5393;SDS011;2720;52.396;10.064;2023-05-19T00:19:40;6.40;;;3.07;;
5393;SDS011;2720;52.396;10.064;2023-05-19T00:22:10;10.33;;;3.27;;
5393;SDS011;2720;52.396;10.064;2023-05-19T00:24:37;9.00;;;2.87;;
5393;SDS011;2720;52.396;10.064;2023-05-19T00:27:04;5.50;;;2.40;;
5393;SDS011;2720;52.396;10.064;2023-05-19T00:29:31;3.83;;;2.20;;
5393;SDS011;2720;52.396;10.064;2023-05-19T00:31:58;10.13;;;3.80;;
5393;SDS011;2720;52.396;10.064;2023-05-19T00:34:25;7.70;;;3.10;;
5393;SDS011;2720;52.396;10.064;2023-05-19T00:36:51;10.33;;;2.90;;
5393;SDS011;2720;52.396;10.064;2023-05-19T00:39:20;10.30;;;2.73;;
5393;SDS011;2720;52.396;10.064;2023-05-19T00:41:47;8.93;;;2.63;;
5393;SDS011;2720;52.396;10.064;2023-05-19T00:44:14;11.13;;;3.57;;
5393;SDS011;2720;52.396;10.064;2023-05-19T00:46:40;7.07;;;2.90;;
5393;SDS011;2720;52.396;10.064;2023-05-19T00:49:07;4.90;;;2.60;;
5393;SDS011;2720;52.396;10.064;2023-05-19T00:51:34;13.50;;;4.10;;
5393;SDS011;2720;52.396;10.064;2023-05-19T00:54:02;8.63;;;2.57;;
5393;SDS011;2720;52.396;10.064;2023-05-19T00:56:30;5.93;;;2.77;;
5393;SDS011;2720;52.396;10.064;2023-05-19T00:58:58;13.37;;;3.73;;
5393;SDS011;2720;52.396;10.064;2023-05-19T01:01:25;7.60;;;3.00;;
5393;SDS011;2720;52.396;10.064;2023-05-19T01:03:52;5.67;;;2.97;;
5393;SDS011;2720;52.396;10.064;2023-05-19T01:06:23;7.93;;;3.50;;
5393;SDS011;2720;52.396;10.064;2023-05-19T01:08:52;10.20;;;3.30;;
5393;SDS011;2720;52.396;10.064;2023-05-19T01:11:19;17.67;;;4.13;;
5393;SDS011;2720;52.396;10.064;2023-05-19T01:13:48;14.37;;;3.20;;
5393;SDS011;2720;52.396;10.064;2023-05-19T01:16:17;7.07;;;2.83;;
5393;SDS011;2720;52.396;10.064;2023-05-19T01:18:59;10.97;;;3.30;;
5393;SDS011;2720;52.396;10.064;2023-05-19T01:21:36;11.03;;;3.23;;
5393;SDS011;2720;52.396;10.064;2023-05-19T01:24:28;10.90;;;3.67;;
5393;SDS011;2720;52.396;10.064;2023-05-19T01:27:16;8.00;;;3.03;;
5393;SDS011;2720;52.396;10.064;2023-05-19T01:33:00;6.53;;;2.77;;
5393;SDS011;2720;52.396;10.064;2023-05-19T01:35:28;5.13;;;3.00;;
5393;SDS011;2720;52.396;10.064;2023-05-19T01:37:57;17.00;;;4.40;;
5393;SDS011;2720;52.396;10.064;2023-05-19T01:40:25;13.97;;;3.50;;
5393;SDS011;2720;52.396;10.064;2023-05-19T01:42:54;7.90;;;3.33;;
5393;SDS011;2720;52.396;10.064;2023-05-19T01:45:24;7.30;;;3.13;;
5393;SDS011;2720;52.396;10.064;2023-05-19T01:47:55;10.40;;;2.80;;
5393;SDS011;2720;52.396;10.064;2023-05-19T01:50:24;12.77;;;3.20;;
5393;SDS011;2720;52.396;10.064;2023-05-19T01:52:51;5.70;;;3.17;;
5393;SDS011;2720;52.396;10.064;2023-05-19T01:55:19;11.07;;;3.50;;
5393;SDS011;2720;52.396;10.064;2023-05-19T01:57:49;7.07;;;3.03;;
5393;SDS011;2720;52.396;10.064;2023-05-19T02:00:32;8.70;;;3.67;;
5393;SDS011;2720;52.396;10.064;2023-05-19T02:03:11;9.57;;;3.10;;
5393;SDS011;2720;52.396;10.064;2023-05-19T02:05:50;10.70;;;3.03;;
5393;SDS011;2720;52.396;10.064;2023-05-19T02:08:23;9.17;;;3.40;;
5393;SDS011;2720;52.396;10.064;2023-05-19T02:10:56;9.80;;;3.27;;
5393;SDS011;2720;52.396;10.064;2023-05-19T02:13:28;10.43;;;2.93;;
5393;SDS011;2720;52.396;10.064;2023-05-19T02:16:01;7.03;;;3.10;;
5393;SDS011;2720;52.396;10.064;2023-05-19T02:18:32;7.30;;;3.77;;
5393;SDS011;2720;52.396;10.064;2023-05-19T02:20:59;6.67;;;3.67;;
5393;SDS011;2720;52.396;10.064;2023-05-19T02:23:26;4.97;;;3.00;;
5393;SDS011;2720;52.396;10.064;2023-05-19T02:25:53;14.17;;;4.13;;
5393;SDS011;2720;52.396;10.064;2023-05-19T02:28:20;8.37;;;3.33;;
5393;SDS011;2720;52.396;10.064;2023-05-19T02:30:47;11.83;;;4.40;;
5393;SDS011;2720;52.396;10.064;2023-05-19T02:33:14;7.27;;;3.57;;
5393;SDS011;2720;52.396;10.064;2023-05-19T02:35:44;14.57;;;4.30;;
5393;SDS011;2720;52.396;10.064;2023-05-19T02:38:11;7.57;;;3.10;;
5393;SDS011;2720;52.396;10.064;2023-05-19T02:40:38;14.30;;;4.30;;
5393;SDS011;2720;52.396;10.064;2023-05-19T02:43:05;10.27;;;3.57;;
5393;SDS011;2720;52.396;10.064;2023-05-19T02:45:32;5.83;;;3.30;;
5393;SDS011;2720;52.396;10.064;2023-05-19T02:47:59;10.00;;;3.77;;
5393;SDS011;2720;52.396;10.064;2023-05-19T02:50:26;12.13;;;2.93;;
5393;SDS011;2720;52.396;10.064;2023-05-19T02:52:54;8.20;;;3.50;;
5393;SDS011;2720;52.396;10.064;2023-05-19T02:55:21;14.00;;;3.70;;
5393;SDS011;2720;52.396;10.064;2023-05-19T02:57:48;10.93;;;3.20;;
5393;SDS011;2720;52.396;10.064;2023-05-19T03:00:15;8.93;;;3.40;;
5393;SDS011;2720;52.396;10.064;2023-05-19T03:02:42;9.93;;;3.43;;
5393;SDS011;2720;52.396;10.064;2023-05-19T03:05:09;14.77;;;4.90;;
5393;SDS011;2720;52.396;10.064;2023-05-19T03:07:36;10.40;;;5.00;;
5393;SDS011;2720;52.396;10.064;2023-05-19T03:10:05;20.67;;;6.03;;
5393;SDS011;2720;52.396;10.064;2023-05-19T03:12:33;12.13;;;3.90;;
5393;SDS011;2720;52.396;10.064;2023-05-19T03:15:00;10.10;;;3.70;;
5393;SDS011;2720;52.396;10.064;2023-05-19T03:17:27;15.50;;;3.90;;
5393;SDS011;2720;52.396;10.064;2023-05-19T03:19:57;11.70;;;4.20;;
5393;SDS011;2720;52.396;10.064;2023-05-19T03:22:25;17.30;;;4.87;;
5393;SDS011;2720;52.396;10.064;2023-05-19T03:24:52;15.63;;;4.20;;
5393;SDS011;2720;52.396;10.064;2023-05-19T03:27:20;15.67;;;4.63;;
5393;SDS011;2720;52.396;10.064;2023-05-19T03:29:47;20.93;;;4.17;;
5393;SDS011;2720;52.396;10.064;2023-05-19T03:32:14;15.20;;;4.53;;
5393;SDS011;2720;52.396;10.064;2023-05-19T03:34:41;11.63;;;4.37;;
5393;SDS011;2720;52.396;10.064;2023-05-19T03:37:08;8.90;;;4.40;;
5393;SDS011;2720;52.396;10.064;2023-05-19T03:39:36;12.87;;;5.67;;
5393;SDS011;2720;52.396;10.064;2023-05-19T03:42:04;11.53;;;4.63;;
5393;SDS011;2720;52.396;10.064;2023-05-19T03:44:35;12.97;;;3.93;;
5393;SDS011;2720;52.396;10.064;2023-05-19T03:47:02;12.00;;;4.57;;
5393;SDS011;2720;52.396;10.064;2023-05-19T03:49:29;8.10;;;4.10;;
5393;SDS011;2720;52.396;10.064;2023-05-19T03:51:56;10.40;;;4.10;;
5393;SDS011;2720;52.396;10.064;2023-05-19T03:54:23;14.10;;;4.60;;
5393;SDS011;2720;52.396;10.064;2023-05-19T03:56:51;16.40;;;4.33;;
5393;SDS011;2720;52.396;10.064;2023-05-19T03:59:18;12.10;;;5.30;;
5393;SDS011;2720;52.396;10.064;2023-05-19T04:01:46;9.33;;;4.53;;
5393;SDS011;2720;52.396;10.064;2023-05-19T04:04:13;10.97;;;4.13;;
5393;SDS011;2720;52.396;10.064;2023-05-19T04:06:40;7.77;;;3.33;;
5393;SDS011;2720;52.396;10.064;2023-05-19T04:09:10;12.13;;;4.67;;
5393;SDS011;2720;52.396;10.064;2023-05-19T04:11:38;11.60;;;4.40;;
5393;SDS011;2720;52.396;10.064;2023-05-19T04:14:05;8.43;;;4.57;;
5393;SDS011;2720;52.396;10.064;2023-05-19T04:16:33;10.93;;;4.37;;
5393;SDS011;2720;52.396;10.064;2023-05-19T04:19:01;7.63;;;3.53;;
5393;SDS011;2720;52.396;10.064;2023-05-19T04:21:28;12.37;;;4.50;;
5393;SDS011;2720;52.396;10.064;2023-05-19T04:23:55;11.53;;;4.03;;
5393;SDS011;2720;52.396;10.064;2023-05-19T04:26:23;11.87;;;4.43;;
5393;SDS011;2720;52.396;10.064;2023-05-19T04:28:51;17.80;;;4.60;;
5393;SDS011;2720;52.396;10.064;2023-05-19T04:31:18;14.03;;;3.83;;
5393;SDS011;2720;52.396;10.064;2023-05-19T04:33:45;11.83;;;4.10;;
5393;SDS011;2720;52.396;10.064;2023-05-19T04:36:15;12.80;;;3.77;;
5393;SDS011;2720;52.396;10.064;2023-05-19T04:38:45;12.17;;;4.23;;
5393;SDS011;2720;52.396;10.064;2023-05-19T04:41:12;8.50;;;4.00;;
5393;SDS011;2720;52.396;10.064;2023-05-19T04:43:40;23.83;;;4.63;;
5393;SDS011;2720;52.396;10.064;2023-05-19T04:46:08;14.33;;;3.87;;
5393;SDS011;2720;52.396;10.064;2023-05-19T04:48:36;13.37;;;4.07;;
5393;SDS011;2720;52.396;10.064;2023-05-19T04:51:04;9.10;;;3.93;;
5393;SDS011;2720;52.396;10.064;2023-05-19T04:53:32;30.07;;;4.40;;
5393;SDS011;2720;52.396;10.064;2023-05-19T04:56:00;14.50;;;5.13;;
5393;SDS011;2720;52.396;10.064;2023-05-19T04:58:27;11.17;;;3.30;;
5393;SDS011;2720;52.396;10.064;2023-05-19T05:00:54;11.53;;;3.60;;
5393;SDS011;2720;52.396;10.064;2023-05-19T05:03:21;6.57;;;3.80;;
5393;SDS011;2720;52.396;10.064;2023-05-19T05:05:49;7.10;;;3.33;;
5393;SDS011;2720;52.396;10.064;2023-05-19T05:08:16;8.77;;;3.97;;
5393;SDS011;2720;52.396;10.064;2023-05-19T05:10:49;18.93;;;4.03;;
5393;SDS011;2720;52.396;10.064;2023-05-19T05:13:17;10.50;;;3.57;;
5393;SDS011;2720;52.396;10.064;2023-05-19T05:15:47;15.80;;;4.40;;
5393;SDS011;2720;52.396;10.064;2023-05-19T05:18:16;10.70;;;3.77;;
5393;SDS011;2720;52.396;10.064;2023-05-19T05:20:44;9.13;;;3.90;;
5393;SDS011;2720;52.396;10.064;2023-05-19T05:23:12;10.40;;;3.10;;
5393;SDS011;2720;52.396;10.064;2023-05-19T05:25:41;9.40;;;4.00;;
5393;SDS011;2720;52.396;10.064;2023-05-19T05:28:09;13.00;;;3.83;;
5393;SDS011;2720;52.396;10.064;2023-05-19T05:30:37;15.10;;;3.70;;
5393;SDS011;2720;52.396;10.064;2023-05-19T05:33:05;11.20;;;4.23;;
5393;SDS011;2720;52.396;10.064;2023-05-19T05:35:32;19.50;;;4.43;;
5393;SDS011;2720;52.396;10.064;2023-05-19T05:37:59;13.10;;;3.50;;
5393;SDS011;2720;52.396;10.064;2023-05-19T05:40:27;15.20;;;3.90;;
5393;SDS011;2720;52.396;10.064;2023-05-19T05:42:55;12.07;;;4.60;;
5393;SDS011;2720;52.396;10.064;2023-05-19T05:45:24;8.60;;;3.60;;
5393;SDS011;2720;52.396;10.064;2023-05-19T05:47:51;6.83;;;3.57;;
5393;SDS011;2720;52.396;10.064;2023-05-19T05:50:19;11.53;;;3.43;;
5393;SDS011;2720;52.396;10.064;2023-05-19T05:52:46;12.90;;;3.27;;
5393;SDS011;2720;52.396;10.064;2023-05-19T05:55:14;19.80;;;4.57;;
5393;SDS011;2720;52.396;10.064;2023-05-19T05:57:42;6.80;;;3.27;;
5393;SDS011;2720;52.396;10.064;2023-05-19T06:00:09;17.33;;;4.37;;
5393;SDS011;2720;52.396;10.064;2023-05-19T06:02:42;17.67;;;4.40;;
5393;SDS011;2720;52.396;10.064;2023-05-19T06:05:10;9.30;;;4.07;;
5393;SDS011;2720;52.396;10.064;2023-05-19T06:07:38;7.53;;;3.20;;
5393;SDS011;2720;52.396;10.064;2023-05-19T06:10:05;13.40;;;4.13;;
5393;SDS011;2720;52.396;10.064;2023-05-19T06:12:34;12.63;;;4.07;;
5393;SDS011;2720;52.396;10.064;2023-05-19T06:15:04;11.53;;;3.27;;
5393;SDS011;2720;52.396;10.064;2023-05-19T06:17:31;14.83;;;4.20;;
5393;SDS011;2720;52.396;10.064;2023-05-19T06:20:01;20.30;;;3.20;;
5393;SDS011;2720;52.396;10.064;2023-05-19T06:22:28;17.50;;;3.97;;
5393;SDS011;2720;52.396;10.064;2023-05-19T06:24:55;13.93;;;3.57;;
5393;SDS011;2720;52.396;10.064;2023-05-19T06:27:22;9.90;;;3.23;;
5393;SDS011;2720;52.396;10.064;2023-05-19T06:29:49;13.40;;;2.90;;
5393;SDS011;2720;52.396;10.064;2023-05-19T06:32:16;14.70;;;3.93;;
5393;SDS011;2720;52.396;10.064;2023-05-19T06:34:43;16.20;;;3.53;;
5393;SDS011;2720;52.396;10.064;2023-05-19T06:37:11;19.70;;;3.47;;
5393;SDS011;2720;52.396;10.064;2023-05-19T06:39:41;12.20;;;2.83;;
5393;SDS011;2720;52.396;10.064;2023-05-19T06:42:08;9.30;;;3.20;;
5393;SDS011;2720;52.396;10.064;2023-05-19T06:44:35;10.77;;;4.00;;
5393;SDS011;2720;52.396;10.064;2023-05-19T06:47:02;12.90;;;3.50;;
5393;SDS011;2720;52.396;10.064;2023-05-19T06:49:29;8.70;;;3.10;;
5393;SDS011;2720;52.396;10.064;2023-05-19T06:51:56;15.03;;;3.63;;
5393;SDS011;2720;52.396;10.064;2023-05-19T06:54:24;7.33;;;2.67;;
5393;SDS011;2720;52.396;10.064;2023-05-19T06:56:51;8.97;;;3.13;;
5393;SDS011;2720;52.396;10.064;2023-05-19T06:59:18;5.07;;;2.57;;
5393;SDS011;2720;52.396;10.064;2023-05-19T07:01:46;7.23;;;2.73;;
5393;SDS011;2720;52.396;10.064;2023-05-19T07:04:13;14.60;;;3.70;;
5393;SDS011;2720;52.396;10.064;2023-05-19T07:06:40;6.50;;;2.77;;
5393;SDS011;2720;52.396;10.064;2023-05-19T07:09:07;12.60;;;3.10;;
5393;SDS011;2720;52.396;10.064;2023-05-19T07:11:35;9.80;;;2.63;;
5393;SDS011;2720;52.396;10.064;2023-05-19T07:14:02;7.00;;;2.60;;
5393;SDS011;2720;52.396;10.064;2023-05-19T07:16:29;9.60;;;3.13;;
5393;SDS011;2720;52.396;10.064;2023-05-19T07:18:56;9.37;;;2.90;;
5393;SDS011;2720;52.396;10.064;2023-05-19T07:21:23;9.30;;;3.20;;
5393;SDS011;2720;52.396;10.064;2023-05-19T07:23:50;9.40;;;2.67;;
5393;SDS011;2720;52.396;10.064;2023-05-19T07:26:17;15.33;;;2.80;;
5393;SDS011;2720;52.396;10.064;2023-05-19T07:28:46;6.27;;;2.63;;
5393;SDS011;2720;52.396;10.064;2023-05-19T07:31:13;10.30;;;2.70;;
5393;SDS011;2720;52.396;10.064;2023-05-19T07:33:40;8.87;;;2.97;;
5393;SDS011;2720;52.396;10.064;2023-05-19T07:36:07;17.67;;;2.90;;
5393;SDS011;2720;52.396;10.064;2023-05-19T07:38:34;14.13;;;3.00;;
5393;SDS011;2720;52.396;10.064;2023-05-19T07:41:01;10.67;;;2.80;;
5393;SDS011;2720;52.396;10.064;2023-05-19T07:43:28;9.60;;;3.10;;
5393;SDS011;2720;52.396;10.064;2023-05-19T07:45:57;7.20;;;2.40;;
5393;SDS011;2720;52.396;10.064;2023-05-19T07:48:23;5.67;;;2.17;;
5393;SDS011;2720;52.396;10.064;2023-05-19T07:50:50;5.03;;;2.40;;
5393;SDS011;2720;52.396;10.064;2023-05-19T07:53:18;5.77;;;2.33;;
5393;SDS011;2720;52.396;10.064;2023-05-19T07:55:46;9.50;;;2.23;;
5393;SDS011;2720;52.396;10.064;2023-05-19T07:58:14;5.03;;;2.50;;
5393;SDS011;2720;52.396;10.064;2023-05-19T08:00:41;10.03;;;2.57;;
5393;SDS011;2720;52.396;10.064;2023-05-19T08:03:11;10.07;;;2.77;;
5393;SDS011;2720;52.396;10.064;2023-05-19T08:05:41;6.67;;;2.03;;
5393;SDS011;2720;52.396;10.064;2023-05-19T08:08:08;19.87;;;3.37;;
5393;SDS011;2720;52.396;10.064;2023-05-19T08:10:35;11.83;;;2.90;;
5393;SDS011;2720;52.396;10.064;2023-05-19T08:13:02;11.27;;;3.07;;
5393;SDS011;2720;52.396;10.064;2023-05-19T08:15:29;6.87;;;2.20;;
5393;SDS011;2720;52.396;10.064;2023-05-19T08:17:56;9.23;;;3.00;;
5393;SDS011;2720;52.396;10.064;2023-05-19T08:20:25;19.80;;;2.43;;
5393;SDS011;2720;52.396;10.064;2023-05-19T08:22:52;10.17;;;2.50;;
5393;SDS011;2720;52.396;10.064;2023-05-19T08:25:19;13.13;;;2.50;;
5393;SDS011;2720;52.396;10.064;2023-05-19T08:27:46;6.93;;;2.33;;
5393;SDS011;2720;52.396;10.064;2023-05-19T08:30:13;10.70;;;2.87;;
5393;SDS011;2720;52.396;10.064;2023-05-19T08:32:40;11.03;;;2.30;;
5393;SDS011;2720;52.396;10.064;2023-05-19T08:35:08;24.70;;;2.60;;
5393;SDS011;2720;52.396;10.064;2023-05-19T08:37:36;10.10;;;2.17;;
5393;SDS011;2720;52.396;10.064;2023-05-19T08:40:03;11.57;;;2.20;;
5393;SDS011;2720;52.396;10.064;2023-05-19T08:42:32;14.10;;;3.50;;
5393;SDS011;2720;52.396;10.064;2023-05-19T08:45:00;7.93;;;2.27;;
5393;SDS011;2720;52.396;10.064;2023-05-19T08:47:28;12.83;;;2.33;;
5393;SDS011;2720;52.396;10.064;2023-05-19T08:50:03;12.57;;;2.50;;
5393;SDS011;2720;52.396;10.064;2023-05-19T08:52:31;16.23;;;2.80;;
5393;SDS011;2720;52.396;10.064;2023-05-19T08:55:12;11.07;;;2.90;;
5393;SDS011;2720;52.396;10.064;2023-05-19T08:57:46;14.17;;;2.17;;
5393;SDS011;2720;52.396;10.064;2023-05-19T09:00:14;8.50;;;2.40;;
5393;SDS011;2720;52.396;10.064;2023-05-19T09:02:42;12.80;;;2.93;;
5393;SDS011;2720;52.396;10.064;2023-05-19T09:05:11;16.23;;;2.83;;
5393;SDS011;2720;52.396;10.064;2023-05-19T09:07:39;8.13;;;1.67;;
5393;SDS011;2720;52.396;10.064;2023-05-19T09:10:07;7.73;;;2.00;;
5393;SDS011;2720;52.396;10.064;2023-05-19T09:12:38;10.73;;;2.53;;
5393;SDS011;2720;52.396;10.064;2023-05-19T09:15:06;9.00;;;2.47;;
5393;SDS011;2720;52.396;10.064;2023-05-19T09:17:34;6.93;;;2.23;;
5393;SDS011;2720;52.396;10.064;2023-05-19T09:20:02;8.80;;;2.10;;
5393;SDS011;2720;52.396;10.064;2023-05-19T09:22:32;11.60;;;2.67;;
5393;SDS011;2720;52.396;10.064;2023-05-19T09:25:02;6.50;;;2.00;;
5393;SDS011;2720;52.396;10.064;2023-05-19T09:27:29;11.07;;;2.03;;
5393;SDS011;2720;52.396;10.064;2023-05-19T09:30:00;10.00;;;2.73;;
5393;SDS011;2720;52.396;10.064;2023-05-19T09:32:34;11.20;;;2.90;;
5393;SDS011;2720;52.396;10.064;2023-05-19T09:35:01;7.43;;;2.00;;
5393;SDS011;2720;52.396;10.064;2023-05-19T09:37:29;7.07;;;2.30;;
5393;SDS011;2720;52.396;10.064;2023-05-19T09:39:56;7.97;;;2.57;;
5393;SDS011;2720;52.396;10.064;2023-05-19T09:42:25;15.50;;;2.50;;
5393;SDS011;2720;52.396;10.064;2023-05-19T09:44:57;6.37;;;2.07;;
5393;SDS011;2720;52.396;10.064;2023-05-19T09:47:26;13.57;;;1.97;;
5393;SDS011;2720;52.396;10.064;2023-05-19T09:49:53;6.87;;;2.00;;
5393;SDS011;2720;52.396;10.064;2023-05-19T09:52:20;8.33;;;2.20;;
5393;SDS011;2720;52.396;10.064;2023-05-19T09:54:48;10.00;;;2.20;;
5393;SDS011;2720;52.396;10.064;2023-05-19T09:57:16;7.13;;;2.00;;
5393;SDS011;2720;52.396;10.064;2023-05-19T09:59:44;7.63;;;2.10;;
5393;SDS011;2720;52.396;10.064;2023-05-19T10:02:13;7.57;;;1.73;;
5393;SDS011;2720;52.396;10.064;2023-05-19T10:04:42;11.30;;;2.20;;
5393;SDS011;2720;52.396;10.064;2023-05-19T10:07:11;6.93;;;1.20;;
5393;SDS011;2720;52.396;10.064;2023-05-19T10:09:41;3.30;;;1.50;;
5393;SDS011;2720;52.396;10.064;2023-05-19T10:12:10;9.00;;;1.57;;
5393;SDS011;2720;52.396;10.064;2023-05-19T10:14:38;3.33;;;1.33;;
5393;SDS011;2720;52.396;10.064;2023-05-19T10:17:07;4.47;;;1.40;;
5393;SDS011;2720;52.396;10.064;2023-05-19T10:19:36;12.93;;;1.77;;
5393;SDS011;2720;52.396;10.064;2023-05-19T10:22:03;6.23;;;1.43;;
5393;SDS011;2720;52.396;10.064;2023-05-19T10:24:30;3.30;;;1.20;;
5393;SDS011;2720;52.396;10.064;2023-05-19T10:26:59;7.57;;;1.23;;
5393;SDS011;2720;52.396;10.064;2023-05-19T10:29:30;6.70;;;1.30;;
5393;SDS011;2720;52.396;10.064;2023-05-19T10:32:03;5.80;;;1.40;;
5393;SDS011;2720;52.396;10.064;2023-05-19T10:37:39;2.77;;;1.20;;
5393;SDS011;2720;52.396;10.064;2023-05-19T10:40:11;3.10;;;1.20;;
5393;SDS011;2720;52.396;10.064;2023-05-19T10:42:49;5.77;;;1.03;;
5393;SDS011;2720;52.396;10.064;2023-05-19T10:45:27;3.53;;;1.07;;
5393;SDS011;2720;52.396;10.064;2023-05-19T10:47:59;5.10;;;2.30;;
5393;SDS011;2720;52.396;10.064;2023-05-19T10:50:26;5.03;;;1.20;;
5393;SDS011;2720;52.396;10.064;2023-05-19T10:53:01;5.50;;;1.13;;
5393;SDS011;2720;52.396;10.064;2023-05-19T10:58:36;9.13;;;1.40;;
5393;SDS011;2720;52.396;10.064;2023-05-19T11:01:07;4.50;;;1.30;;
5393;SDS011;2720;52.396;10.064;2023-05-19T11:03:46;8.67;;;1.50;;
5393;SDS011;2720;52.396;10.064;2023-05-19T11:06:20;3.83;;;1.47;;
5393;SDS011;2720;52.396;10.064;2023-05-19T11:08:55;5.87;;;1.37;;
5393;SDS011;2720;52.396;10.064;2023-05-19T11:11:24;3.67;;;1.40;;
5393;SDS011;2720;52.396;10.064;2023-05-19T11:13:53;3.73;;;1.27;;
5393;SDS011;2720;52.396;10.064;2023-05-19T11:16:26;6.20;;;1.50;;
5393;SDS011;2720;52.396;10.064;2023-05-19T11:18:57;6.23;;;1.30;;
5393;SDS011;2720;52.396;10.064;2023-05-19T11:21:38;3.23;;;0.90;;
5393;SDS011;2720;52.396;10.064;2023-05-19T11:24:06;3.73;;;1.23;;
5393;SDS011;2720;52.396;10.064;2023-05-19T11:26:39;3.33;;;1.30;;
5393;SDS011;2720;52.396;10.064;2023-05-19T11:29:08;5.30;;;1.60;;
5393;SDS011;2720;52.396;10.064;2023-05-19T11:31:35;4.00;;;1.40;;
5393;SDS011;2720;52.396;10.064;2023-05-19T11:34:05;5.17;;;1.40;;
5393;SDS011;2720;52.396;10.064;2023-05-19T11:36:34;5.20;;;1.27;;
5393;SDS011;2720;52.396;10.064;2023-05-19T11:39:02;3.07;;;1.00;;
5393;SDS011;2720;52.396;10.064;2023-05-19T11:41:31;4.90;;;1.23;;
5393;SDS011;2720;52.396;10.064;2023-05-19T11:43:58;4.67;;;1.70;;
5393;SDS011;2720;52.396;10.064;2023-05-19T11:46:24;6.03;;;1.20;;
5393;SDS011;2720;52.396;10.064;2023-05-19T11:48:52;5.93;;;1.00;;
5393;SDS011;2720;52.396;10.064;2023-05-19T11:51:21;3.97;;;1.10;;
5393;SDS011;2720;52.396;10.064;2023-05-19T11:53:49;4.37;;;1.03;;
5393;SDS011;2720;52.396;10.064;2023-05-19T11:56:18;6.80;;;2.00;;
5393;SDS011;2720;52.396;10.064;2023-05-19T11:58:45;3.50;;;1.00;;
5393;SDS011;2720;52.396;10.064;2023-05-19T12:01:12;7.20;;;1.87;;
5393;SDS011;2720;52.396;10.064;2023-05-19T12:03:39;7.53;;;0.90;;
5393;SDS011;2720;52.396;10.064;2023-05-19T12:06:06;2.70;;;0.87;;
5393;SDS011;2720;52.396;10.064;2023-05-19T12:08:35;4.87;;;1.30;;
5393;SDS011;2720;52.396;10.064;2023-05-19T12:11:03;4.70;;;1.07;;
5393;SDS011;2720;52.396;10.064;2023-05-19T12:13:31;8.73;;;1.30;;
5393;SDS011;2720;52.396;10.064;2023-05-19T12:15:59;5.70;;;1.53;;
5393;SDS011;2720;52.396;10.064;2023-05-19T12:18:27;4.50;;;1.30;;
5393;SDS011;2720;52.396;10.064;2023-05-19T12:20:56;2.50;;;0.80;;
5393;SDS011;2720;52.396;10.064;2023-05-19T12:23:23;5.40;;;1.40;;
5393;SDS011;2720;52.396;10.064;2023-05-19T12:25:52;5.37;;;1.50;;
5393;SDS011;2720;52.396;10.064;2023-05-19T12:28:19;16.97;;;1.50;;
5393;SDS011;2720;52.396;10.064;2023-05-19T12:30:46;5.07;;;1.10;;
5393;SDS011;2720;52.396;10.064;2023-05-19T12:33:16;4.10;;;0.87;;
5393;SDS011;2720;52.396;10.064;2023-05-19T12:35:44;3.50;;;1.17;;
5393;SDS011;2720;52.396;10.064;2023-05-19T12:38:12;7.30;;;1.40;;
5393;SDS011;2720;52.396;10.064;2023-05-19T12:40:40;3.63;;;1.10;;
5393;SDS011;2720;52.396;10.064;2023-05-19T12:43:09;3.70;;;1.00;;
5393;SDS011;2720;52.396;10.064;2023-05-19T12:45:45;3.07;;;1.00;;
5393;SDS011;2720;52.396;10.064;2023-05-19T12:48:11;2.90;;;0.97;;
5393;SDS011;2720;52.396;10.064;2023-05-19T12:50:40;3.50;;;0.90;;
5393;SDS011;2720;52.396;10.064;2023-05-19T12:53:07;19.83;;;1.30;;
5393;SDS011;2720;52.396;10.064;2023-05-19T12:55:37;3.60;;;1.10;;
5393;SDS011;2720;52.396;10.064;2023-05-19T12:58:05;4.03;;;1.00;;
5393;SDS011;2720;52.396;10.064;2023-05-19T13:00:35;3.30;;;1.10;;
5393;SDS011;2720;52.396;10.064;2023-05-19T13:03:06;5.43;;;1.20;;
5393;SDS011;2720;52.396;10.064;2023-05-19T13:05:36;4.00;;;0.97;;
5393;SDS011;2720;52.396;10.064;2023-05-19T13:08:05;3.83;;;1.00;;
5393;SDS011;2720;52.396;10.064;2023-05-19T13:10:34;3.63;;;0.90;;
5393;SDS011;2720;52.396;10.064;2023-05-19T13:13:02;3.60;;;1.00;;
5393;SDS011;2720;52.396;10.064;2023-05-19T13:15:29;9.57;;;1.20;;
5393;SDS011;2720;52.396;10.064;2023-05-19T13:18:00;3.70;;;1.10;;
5393;SDS011;2720;52.396;10.064;2023-05-19T13:20:28;5.97;;;1.37;;
5393;SDS011;2720;52.396;10.064;2023-05-19T13:22:55;3.83;;;1.40;;
5393;SDS011;2720;52.396;10.064;2023-05-19T13:25:22;3.37;;;1.10;;
5393;SDS011;2720;52.396;10.064;2023-05-19T13:27:49;7.43;;;1.23;;
5393;SDS011;2720;52.396;10.064;2023-05-19T13:30:16;4.10;;;1.10;;
5393;SDS011;2720;52.396;10.064;2023-05-19T13:32:44;8.90;;;1.97;;
5393;SDS011;2720;52.396;10.064;2023-05-19T13:35:13;5.67;;;1.23;;
5393;SDS011;2720;52.396;10.064;2023-05-19T13:37:40;6.97;;;1.33;;
5393;SDS011;2720;52.396;10.064;2023-05-19T13:40:08;5.07;;;1.40;;
5393;SDS011;2720;52.396;10.064;2023-05-19T13:42:35;2.90;;;1.33;;
5393;SDS011;2720;52.396;10.064;2023-05-19T13:45:03;3.87;;;1.00;;
5393;SDS011;2720;52.396;10.064;2023-05-19T13:47:30;3.97;;;1.13;;
5393;SDS011;2720;52.396;10.064;2023-05-19T13:49:57;5.50;;;0.90;;
5393;SDS011;2720;52.396;10.064;2023-05-19T13:52:26;6.40;;;1.23;;
5393;SDS011;2720;52.396;10.064;2023-05-19T13:54:52;4.00;;;1.10;;
5393;SDS011;2720;52.396;10.064;2023-05-19T13:57:20;7.77;;;0.93;;
5393;SDS011;2720;52.396;10.064;2023-05-19T13:59:48;3.60;;;1.20;;
5393;SDS011;2720;52.396;10.064;2023-05-19T14:02:15;2.87;;;0.90;;
5393;SDS011;2720;52.396;10.064;2023-05-19T14:04:42;6.83;;;1.20;;
5393;SDS011;2720;52.396;10.064;2023-05-19T14:07:10;3.17;;;0.90;;
5393;SDS011;2720;52.396;10.064;2023-05-19T14:09:39;3.53;;;0.83;;
5393;SDS011;2720;52.396;10.064;2023-05-19T14:12:06;4.67;;;1.70;;
5393;SDS011;2720;52.396;10.064;2023-05-19T14:14:36;2.83;;;1.20;;
5393;SDS011;2720;52.396;10.064;2023-05-19T14:17:03;5.80;;;1.20;;
5393;SDS011;2720;52.396;10.064;2023-05-19T14:19:30;3.27;;;1.20;;
5393;SDS011;2720;52.396;10.064;2023-05-19T14:21:57;5.90;;;1.10;;
5393;SDS011;2720;52.396;10.064;2023-05-19T14:24:24;4.07;;;1.60;;
5393;SDS011;2720;52.396;10.064;2023-05-19T14:26:52;5.50;;;1.40;;
5393;SDS011;2720;52.396;10.064;2023-05-19T14:29:19;3.80;;;1.03;;
5393;SDS011;2720;52.396;10.064;2023-05-19T14:31:46;3.37;;;0.80;;
5393;SDS011;2720;52.396;10.064;2023-05-19T14:34:13;5.30;;;1.23;;
5393;SDS011;2720;52.396;10.064;2023-05-19T14:36:42;4.70;;;1.50;;
5393;SDS011;2720;52.396;10.064;2023-05-19T14:39:08;5.90;;;1.50;;
5393;SDS011;2720;52.396;10.064;2023-05-19T14:41:35;3.87;;;1.13;;
5393;SDS011;2720;52.396;10.064;2023-05-19T14:44:04;8.97;;;1.40;;
5393;SDS011;2720;52.396;10.064;2023-05-19T14:46:31;13.23;;;1.83;;
5393;SDS011;2720;52.396;10.064;2023-05-19T14:48:58;3.80;;;1.20;;
5393;SDS011;2720;52.396;10.064;2023-05-19T14:51:25;7.23;;;1.37;;
5393;SDS011;2720;52.396;10.064;2023-05-19T14:53:52;3.30;;;0.80;;
5393;SDS011;2720;52.396;10.064;2023-05-19T14:56:19;8.27;;;1.17;;
5393;SDS011;2720;52.396;10.064;2023-05-19T14:58:46;4.30;;;1.30;;
5393;SDS011;2720;52.396;10.064;2023-05-19T15:01:14;7.27;;;1.17;;
5393;SDS011;2720;52.396;10.064;2023-05-19T15:03:41;6.43;;;1.37;;
5393;SDS011;2720;52.396;10.064;2023-05-19T15:06:09;12.37;;;1.77;;
5393;SDS011;2720;52.396;10.064;2023-05-19T15:08:36;5.67;;;1.30;;
5393;SDS011;2720;52.396;10.064;2023-05-19T15:11:04;4.27;;;1.33;;
5393;SDS011;2720;52.396;10.064;2023-05-19T15:13:31;4.27;;;1.23;;